sensor_id;sensor_type;location;lat;lon;timestamp;pressure;altitude;pressure_sealevel;temperature;humidity
15007;BME280;7599;50.748;13.142;2023-03-01T00:01:13;96615.13;;;15.78;41.10
15007;BME280;7599;50.748;13.142;2023-03-01T00:04:16;96604.53;;;15.78;40.97
15007;BME280;7599;50.748;13.142;2023-03-01T00:07:18;96610.88;;;15.77;40.67
15007;BME280;7599;50.748;13.142;2023-03-01T00:10:21;96602.34;;;15.75;40.91
15007;BME280;7599;50.748;13.142;2023-03-01T00:13:23;96592.75;;;15.74;40.91
15007;BME280;7599;50.748;13.142;2023-03-01T00:16:29;96599.69;;;15.75;40.79
15007;BME280;7599;50.748;13.142;2023-03-01T00:19:32;96599.91;;;15.74;41.17
15007;BME280;7599;50.748;13.142;2023-03-01T00:22:34;96599.13;;;15.73;40.69
15007;BME280;7599;50.748;13.142;2023-03-01T00:25:41;96606.25;;;15.73;40.84
15007;BME280;7599;50.748;13.142;2023-03-01T00:28:44;96608.91;;;15.73;40.94
15007;BME280;7599;50.748;13.142;2023-03-01T00:31:48;96610.19;;;15.70;40.71
15007;BME280;7599;50.748;13.142;2023-03-01T00:34:50;96612.84;;;15.70;40.77
15007;BME280;7599;50.748;13.142;2023-03-01T00:37:57;96611.22;;;15.69;41.04
15007;BME280;7599;50.748;13.142;2023-03-01T00:41:03;96614.94;;;15.68;40.89
15007;BME280;7599;50.748;13.142;2023-03-01T00:44:05;96620.25;;;15.68;41.00
15007;BME280;7599;50.748;13.142;2023-03-01T00:47:09;96618.66;;;15.67;40.84
15007;BME280;7599;50.748;13.142;2023-03-01T00:50:11;96606.44;;;15.66;40.69
15007;BME280;7599;50.748;13.142;2023-03-01T00:53:14;96603.78;;;15.66;41.04
15007;BME280;7599;50.748;13.142;2023-03-01T00:56:16;96596.84;;;15.65;40.98
15007;BME280;7599;50.748;13.142;2023-03-01T00:59:19;96600.31;;;15.66;40.64
15007;BME280;7599;50.748;13.142;2023-03-01T01:02:23;96602.63;;;15.62;40.88
15007;BME280;7599;50.748;13.142;2023-03-01T01:05:26;96593.06;;;15.61;40.72
15007;BME280;7599;50.748;13.142;2023-03-01T01:08:29;96590.41;;;15.61;40.89
15007;BME280;7599;50.748;13.142;2023-03-01T01:11:31;96588.31;;;15.63;40.98
15007;BME280;7599;50.748;13.142;2023-03-01T01:14:34;96580.84;;;15.60;40.66
15007;BME280;7599;50.748;13.142;2023-03-01T01:17:38;96574.19;;;15.57;40.60
15007;BME280;7599;50.748;13.142;2023-03-01T01:20:40;96578.41;;;15.58;40.58
15007;BME280;7599;50.748;13.142;2023-03-01T01:23:44;96574.19;;;15.57;40.87
15007;BME280;7599;50.748;13.142;2023-03-01T01:26:47;96573.38;;;15.57;40.71
15007;BME280;7599;50.748;13.142;2023-03-01T01:29:49;96567.50;;;15.55;41.03
15007;BME280;7599;50.748;13.142;2023-03-01T01:32:53;96565.84;;;15.54;40.76
15007;BME280;7599;50.748;13.142;2023-03-01T01:35:56;96558.94;;;15.53;41.06
15007;BME280;7599;50.748;13.142;2023-03-01T01:38:59;96556.28;;;15.53;40.76
15007;BME280;7599;50.748;13.142;2023-03-01T01:42:01;96558.13;;;15.52;40.72
15007;BME280;7599;50.748;13.142;2023-03-01T01:45:28;96563.44;;;15.52;40.79
15007;BME280;7599;50.748;13.142;2023-03-01T01:48:38;96553.06;;;15.51;40.64
15007;BME280;7599;50.748;13.142;2023-03-01T01:51:44;96554.13;;;15.50;41.07
15007;BME280;7599;50.748;13.142;2023-03-01T01:54:52;96550.66;;;15.49;40.60
15007;BME280;7599;50.748;13.142;2023-03-01T01:57:58;96541.31;;;15.47;40.92
15007;BME280;7599;50.748;13.142;2023-03-01T02:01:01;96534.97;;;15.48;40.88
15007;BME280;7599;50.748;13.142;2023-03-01T02:04:06;96534.16;;;15.47;41.14
15007;BME280;7599;50.748;13.142;2023-03-01T02:07:14;96531.53;;;15.47;40.64
15007;BME280;7599;50.748;13.142;2023-03-01T02:10:17;96537.63;;;15.48;40.65
15007;BME280;7599;50.748;13.142;2023-03-01T02:13:19;96532.56;;;15.46;40.46
15007;BME280;7599;50.748;13.142;2023-03-01T02:16:22;96521.94;;;15.46;40.74
15007;BME280;7599;50.748;13.142;2023-03-01T02:19:35;96529.13;;;15.46;40.69
15007;BME280;7599;50.748;13.142;2023-03-01T02:22:40;96531.78;;;15.46;40.78
15007;BME280;7599;50.748;13.142;2023-03-01T02:25:50;96523.81;;;15.46;40.58
15007;BME280;7599;50.748;13.142;2023-03-01T02:28:56;96522.22;;;15.45;40.78
15007;BME280;7599;50.748;13.142;2023-03-01T02:32:00;96524.88;;;15.45;40.75
15007;BME280;7599;50.748;13.142;2023-03-01T02:35:05;96525.91;;;15.44;40.69
15007;BME280;7599;50.748;13.142;2023-03-01T02:38:07;96528.56;;;15.44;40.68
15007;BME280;7599;50.748;13.142;2023-03-01T02:41:13;96526.16;;;15.42;40.50
15007;BME280;7599;50.748;13.142;2023-03-01T02:44:18;96524.31;;;15.43;40.73
15007;BME280;7599;50.748;13.142;2023-03-01T02:47:21;96526.94;;;15.43;40.82
15007;BME280;7599;50.748;13.142;2023-03-01T02:50:39;96530.66;;;15.42;40.84
15007;BME280;7599;50.748;13.142;2023-03-01T02:53:53;96514.97;;;15.40;40.69
15007;BME280;7599;50.748;13.142;2023-03-01T02:56:59;96524.78;;;15.40;40.92
15007;BME280;7599;50.748;13.142;2023-03-01T03:00:06;96510.72;;;15.39;40.81
15007;BME280;7599;50.748;13.142;2023-03-01T03:03:10;96510.72;;;15.39;40.72
15007;BME280;7599;50.748;13.142;2023-03-01T03:06:12;96511.75;;;15.38;40.44
15007;BME280;7599;50.748;13.142;2023-03-01T03:09:16;96506.22;;;15.40;40.64
15007;BME280;7599;50.748;13.142;2023-03-01T03:12:18;96509.91;;;15.39;40.77
15007;BME280;7599;50.748;13.142;2023-03-01T03:15:22;96507.47;;;15.37;40.54
15007;BME280;7599;50.748;13.142;2023-03-01T03:18:25;96505.88;;;15.36;40.52
15007;BME280;7599;50.748;13.142;2023-03-01T03:21:28;96499.75;;;15.36;40.62
15007;BME280;7599;50.748;13.142;2023-03-01T03:24:30;96496.31;;;15.35;40.89
15007;BME280;7599;50.748;13.142;2023-03-01T03:27:41;96499.75;;;15.36;40.82
15007;BME280;7599;50.748;13.142;2023-03-01T03:30:45;96494.72;;;15.34;40.55
15007;BME280;7599;50.748;13.142;2023-03-01T03:33:47;96492.06;;;15.34;40.62
15007;BME280;7599;50.748;13.142;2023-03-01T03:36:52;96481.47;;;15.34;40.63
15007;BME280;7599;50.748;13.142;2023-03-01T03:39:58;96476.41;;;15.33;40.72
15007;BME280;7599;50.748;13.142;2023-03-01T03:43:01;96474.78;;;15.32;40.63
15007;BME280;7599;50.748;13.142;2023-03-01T03:46:06;96476.63;;;15.31;40.51
15007;BME280;7599;50.748;13.142;2023-03-01T03:49:08;96467.88;;;15.31;40.58
15007;BME280;7599;50.748;13.142;2023-03-01T03:52:11;96472.63;;;15.29;40.93
15007;BME280;7599;50.748;13.142;2023-03-01T03:55:14;96472.84;;;15.27;40.88
15007;BME280;7599;50.748;13.142;2023-03-01T03:58:22;96472.28;;;15.25;40.47
15007;BME280;7599;50.748;13.142;2023-03-01T04:01:26;96475.19;;;15.23;40.48
15007;BME280;7599;50.748;13.142;2023-03-01T04:04:28;96469.56;;;15.20;40.40
15007;BME280;7599;50.748;13.142;2023-03-01T04:07:31;96474.84;;;15.20;40.69
15007;BME280;7599;50.748;13.142;2023-03-01T04:10:36;96473.25;;;15.19;40.85
15007;BME280;7599;50.748;13.142;2023-03-01T04:13:39;96476.94;;;15.18;40.83
15007;BME280;7599;50.748;13.142;2023-03-01T04:16:43;96475.91;;;15.19;40.35
15007;BME280;7599;50.748;13.142;2023-03-01T04:19:45;96472.44;;;15.18;40.66
15007;BME280;7599;50.748;13.142;2023-03-01T04:22:50;96467.13;;;15.18;40.59
15007;BME280;7599;50.748;13.142;2023-03-01T04:25:54;96466.09;;;15.19;40.40
15007;BME280;7599;50.748;13.142;2023-03-01T04:28:58;96476.13;;;15.17;40.40
15007;BME280;7599;50.748;13.142;2023-03-01T04:32:02;96470.03;;;15.17;40.59
15007;BME280;7599;50.748;13.142;2023-03-01T04:35:06;96474.53;;;15.16;40.70
15007;BME280;7599;50.748;13.142;2023-03-01T04:38:09;96466.81;;;15.15;40.64
15007;BME280;7599;50.748;13.142;2023-03-01T04:41:11;96462.00;;;15.12;40.77
15007;BME280;7599;50.748;13.142;2023-03-01T04:44:14;96456.13;;;15.10;40.82
15007;BME280;7599;50.748;13.142;2023-03-01T04:47:17;96459.00;;;15.08;40.41
15007;BME280;7599;50.748;13.142;2023-03-01T04:50:20;96453.94;;;15.07;40.48
15007;BME280;7599;50.748;13.142;2023-03-01T04:53:24;96456.81;;;15.05;40.58
15007;BME280;7599;50.748;13.142;2023-03-01T04:56:27;96450.38;;;15.01;40.44
15007;BME280;7599;50.748;13.142;2023-03-01T04:59:29;96460.66;;;14.98;40.83
15007;BME280;7599;50.748;13.142;2023-03-01T05:02:33;96459.28;;;14.95;40.61
15007;BME280;7599;50.748;13.142;2023-03-01T05:05:37;96463.78;;;14.95;40.66
15007;BME280;7599;50.748;13.142;2023-03-01T05:08:41;96466.44;;;14.95;40.67
15007;BME280;7599;50.748;13.142;2023-03-01T05:11:43;96453.75;;;14.97;40.58
15007;BME280;7599;50.748;13.142;2023-03-01T05:14:46;96458.50;;;14.95;40.84
15007;BME280;7599;50.748;13.142;2023-03-01T05:17:49;96462.97;;;14.94;40.63
15007;BME280;7599;50.748;13.142;2023-03-01T05:20:52;96456.66;;;14.95;40.57
15007;BME280;7599;50.748;13.142;2023-03-01T05:23:59;96461.25;;;15.00;40.67
15007;BME280;7599;50.748;13.142;2023-03-01T05:27:01;96453.31;;;15.00;40.79
15007;BME280;7599;50.748;13.142;2023-03-01T05:30:05;96448.31;;;15.03;40.82
15007;BME280;7599;50.748;13.142;2023-03-01T05:33:17;96449.13;;;15.04;40.67
15007;BME280;7599;50.748;13.142;2023-03-01T05:36:20;96445.44;;;15.05;40.42
15007;BME280;7599;50.748;13.142;2023-03-01T05:39:24;96443.81;;;15.04;40.60
15007;BME280;7599;50.748;13.142;2023-03-01T05:42:27;96441.41;;;15.02;40.52
15007;BME280;7599;50.748;13.142;2023-03-01T05:45:29;96443.00;;;15.03;40.62
15007;BME280;7599;50.748;13.142;2023-03-01T05:48:35;96438.22;;;15.00;40.69
15007;BME280;7599;50.748;13.142;2023-03-01T05:51:37;96435.78;;;14.99;40.72
15007;BME280;7599;50.748;13.142;2023-03-01T05:54:40;96436.38;;;15.01;40.87
15007;BME280;7599;50.748;13.142;2023-03-01T05:57:42;96438.66;;;14.97;40.62
15007;BME280;7599;50.748;13.142;2023-03-01T06:00:47;96439.72;;;14.96;40.59
15007;BME280;7599;50.748;13.142;2023-03-01T06:03:51;96445.47;;;14.93;41.12
15007;BME280;7599;50.748;13.142;2023-03-01T06:06:53;96449.41;;;14.90;40.92
15007;BME280;7599;50.748;13.142;2023-03-01T06:09:56;96446.22;;;14.88;40.55
15007;BME280;7599;50.748;13.142;2023-03-01T06:12:58;96444.59;;;14.87;41.00
15007;BME280;7599;50.748;13.142;2023-03-01T06:16:00;96450.69;;;14.88;40.73
15007;BME280;7599;50.748;13.142;2023-03-01T06:19:04;96448.06;;;14.88;40.39
15007;BME280;7599;50.748;13.142;2023-03-01T06:22:07;96453.59;;;14.86;40.57
15007;BME280;7599;50.748;13.142;2023-03-01T06:25:11;96461.28;;;14.88;40.56
15007;BME280;7599;50.748;13.142;2023-03-01T06:28:13;96465.56;;;14.89;40.62
15007;BME280;7599;50.748;13.142;2023-03-01T06:31:16;96464.75;;;14.88;40.98
15007;BME280;7599;50.748;13.142;2023-03-01T06:34:20;96455.81;;;14.78;40.56
15007;BME280;7599;50.748;13.142;2023-03-01T06:37:22;96465.44;;;14.84;40.47
15007;BME280;7599;50.748;13.142;2023-03-01T06:40:25;96465.22;;;14.85;40.85
15007;BME280;7599;50.748;13.142;2023-03-01T06:43:28;96463.38;;;14.86;40.60
15007;BME280;7599;50.748;13.142;2023-03-01T06:46:31;96450.94;;;14.86;40.67
15007;BME280;7599;50.748;13.142;2023-03-01T06:49:35;96455.19;;;14.87;40.64
15007;BME280;7599;50.748;13.142;2023-03-01T06:52:38;96459.19;;;14.90;40.53
15007;BME280;7599;50.748;13.142;2023-03-01T06:55:40;96453.13;;;14.89;40.62
15007;BME280;7599;50.748;13.142;2023-03-01T06:58:43;96446.22;;;14.88;40.38
15007;BME280;7599;50.748;13.142;2023-03-01T07:01:45;96445.16;;;14.89;40.09
15007;BME280;7599;50.748;13.142;2023-03-01T07:04:50;96449.41;;;14.90;39.95
15007;BME280;7599;50.748;13.142;2023-03-01T07:07:52;96443.28;;;14.90;39.99
15007;BME280;7599;50.748;13.142;2023-03-01T07:10:56;96443.06;;;14.92;40.09
15007;BME280;7599;50.748;13.142;2023-03-01T07:13:59;96451.34;;;14.95;39.99
15007;BME280;7599;50.748;13.142;2023-03-01T07:17:01;96456.75;;;15.00;40.14
15007;BME280;7599;50.748;13.142;2023-03-01T07:20:06;96455.22;;;15.04;40.07
15007;BME280;7599;50.748;13.142;2023-03-01T07:23:08;96462.13;;;15.05;40.40
15007;BME280;7599;50.748;13.142;2023-03-01T07:26:11;96450.59;;;15.11;39.71
15007;BME280;7599;50.748;13.142;2023-03-01T07:29:13;96465.06;;;15.20;39.64
15007;BME280;7599;50.748;13.142;2023-03-01T07:32:16;96461.13;;;15.40;39.32
15007;BME280;7599;50.748;13.142;2023-03-01T07:35:20;96461.25;;;15.61;38.90
15007;BME280;7599;50.748;13.142;2023-03-01T07:38:22;96459.47;;;15.84;38.27
15007;BME280;7599;50.748;13.142;2023-03-01T07:41:25;96467.00;;;16.09;37.80
15007;BME280;7599;50.748;13.142;2023-03-01T07:44:27;96465.19;;;16.31;37.24
15007;BME280;7599;50.748;13.142;2023-03-01T07:47:30;96472.94;;;16.54;36.77
15007;BME280;7599;50.748;13.142;2023-03-01T07:50:34;96467.88;;;16.75;36.59
15007;BME280;7599;50.748;13.142;2023-03-01T07:53:37;96459.25;;;17.38;35.23
15007;BME280;7599;50.748;13.142;2023-03-01T07:56:39;96468.00;;;18.44;33.19
15007;BME280;7599;50.748;13.142;2023-03-01T07:59:42;96464.81;;;19.30;31.61
15007;BME280;7599;50.748;13.142;2023-03-01T08:02:45;96458.47;;;19.92;30.62
15007;BME280;7599;50.748;13.142;2023-03-01T08:05:49;96454.88;;;20.62;29.44
15007;BME280;7599;50.748;13.142;2023-03-01T08:08:51;96435.13;;;21.08;28.60
15007;BME280;7599;50.748;13.142;2023-03-01T08:11:56;96437.59;;;21.43;28.03
15007;BME280;7599;50.748;13.142;2023-03-01T08:15:00;96430.25;;;21.88;27.34
15007;BME280;7599;50.748;13.142;2023-03-01T08:18:03;96423.31;;;22.16;26.83
15007;BME280;7599;50.748;13.142;2023-03-01T08:21:08;96426.91;;;22.54;26.62
15007;BME280;7599;50.748;13.142;2023-03-01T08:24:11;96423.34;;;22.82;26.03
15007;BME280;7599;50.748;13.142;2023-03-01T08:27:14;96426.06;;;23.01;25.70
15007;BME280;7599;50.748;13.142;2023-03-01T08:30:17;96423.31;;;23.25;25.42
15007;BME280;7599;50.748;13.142;2023-03-01T08:33:20;96425.63;;;23.50;25.14
15007;BME280;7599;50.748;13.142;2023-03-01T08:36:25;96429.09;;;23.69;24.75
15007;BME280;7599;50.748;13.142;2023-03-01T08:39:27;96432.59;;;23.83;24.70
15007;BME280;7599;50.748;13.142;2023-03-01T08:42:30;96426.78;;;24.09;24.30
15007;BME280;7599;50.748;13.142;2023-03-01T08:45:32;96417.69;;;24.23;24.24
15007;BME280;7599;50.748;13.142;2023-03-01T08:48:35;96418.38;;;24.29;23.97
15007;BME280;7599;50.748;13.142;2023-03-01T08:51:39;96414.50;;;24.35;23.87
15007;BME280;7599;50.748;13.142;2023-03-01T08:54:42;96413.81;;;24.43;23.74
15007;BME280;7599;50.748;13.142;2023-03-01T08:57:44;96413.81;;;24.43;23.85
15007;BME280;7599;50.748;13.142;2023-03-01T09:00:47;96408.34;;;24.48;23.70
15007;BME280;7599;50.748;13.142;2023-03-01T09:03:49;96403.84;;;24.57;23.54
15007;BME280;7599;50.748;13.142;2023-03-01T09:06:53;96402.75;;;24.58;23.52
15007;BME280;7599;50.748;13.142;2023-03-01T09:09:55;96402.41;;;24.74;23.49
15007;BME280;7599;50.748;13.142;2023-03-01T09:12:58;96401.31;;;24.75;23.39
15007;BME280;7599;50.748;13.142;2023-03-01T09:16:01;96390.16;;;24.81;23.47
15007;BME280;7599;50.748;13.142;2023-03-01T09:19:04;96393.16;;;24.80;23.39
15007;BME280;7599;50.748;13.142;2023-03-01T09:22:08;96385.00;;;24.30;23.89
15007;BME280;7599;50.748;13.142;2023-03-01T09:25:10;96376.03;;;22.49;26.27
15007;BME280;7599;50.748;13.142;2023-03-01T09:28:13;96389.47;;;20.94;28.56
15007;BME280;7599;50.748;13.142;2023-03-01T09:31:29;96374.66;;;19.78;30.54
15007;BME280;7599;50.748;13.142;2023-03-01T09:34:31;96377.59;;;19.05;31.53
15007;BME280;7599;50.748;13.142;2023-03-01T09:37:55;96381.78;;;18.61;32.84
15007;BME280;7599;50.748;13.142;2023-03-01T09:40:59;96370.44;;;18.33;33.29
15007;BME280;7599;50.748;13.142;2023-03-01T09:44:07;96372.22;;;18.12;33.54
15007;BME280;7599;50.748;13.142;2023-03-01T09:47:18;96367.06;;;17.91;34.05
15007;BME280;7599;50.748;13.142;2023-03-01T09:50:21;96369.38;;;17.77;34.23
15007;BME280;7599;50.748;13.142;2023-03-01T09:53:31;96375.19;;;17.69;34.39
15007;BME280;7599;50.748;13.142;2023-03-01T09:56:39;96379.88;;;17.62;35.16
15007;BME280;7599;50.748;13.142;2023-03-01T09:59:51;96379.81;;;17.52;34.81
15007;BME280;7599;50.748;13.142;2023-03-01T10:03:00;96385.13;;;17.47;35.10
15007;BME280;7599;50.748;13.142;2023-03-01T10:06:10;96384.25;;;17.41;35.15
15007;BME280;7599;50.748;13.142;2023-03-01T10:09:35;96388.19;;;17.33;35.34
15007;BME280;7599;50.748;13.142;2023-03-01T10:12:40;96391.34;;;17.30;35.52
15007;BME280;7599;50.748;13.142;2023-03-01T10:15:48;96386.81;;;17.26;35.20
15007;BME280;7599;50.748;13.142;2023-03-01T10:19:00;96391.81;;;17.22;35.50
15007;BME280;7599;50.748;13.142;2023-03-01T10:22:11;96379.03;;;17.19;35.71
15007;BME280;7599;50.748;13.142;2023-03-01T10:25:23;96374.75;;;17.13;35.96
15007;BME280;7599;50.748;13.142;2023-03-01T10:28:41;96382.41;;;17.10;35.81
15007;BME280;7599;50.748;13.142;2023-03-01T10:31:48;96380.50;;;17.05;36.08
15007;BME280;7599;50.748;13.142;2023-03-01T10:34:51;96384.72;;;17.01;36.20
15007;BME280;7599;50.748;13.142;2023-03-01T10:38:02;96383.06;;;16.95;36.15
15007;BME280;7599;50.748;13.142;2023-03-01T10:41:07;96375.06;;;16.90;36.53
15007;BME280;7599;50.748;13.142;2023-03-01T10:44:39;96370.00;;;16.88;36.50
15007;BME280;7599;50.748;13.142;2023-03-01T10:47:42;96365.97;;;16.86;36.70
15007;BME280;7599;50.748;13.142;2023-03-01T10:50:46;96369.94;;;16.83;36.65
15007;BME280;7599;50.748;13.142;2023-03-01T10:53:49;96366.47;;;16.83;36.54
15007;BME280;7599;50.748;13.142;2023-03-01T10:56:55;96375.31;;;16.88;36.70
15007;BME280;7599;50.748;13.142;2023-03-01T11:00:16;96363.13;;;16.92;36.51
15007;BME280;7599;50.748;13.142;2023-03-01T11:03:22;96370.88;;;16.99;36.45
15007;BME280;7599;50.748;13.142;2023-03-01T11:06:25;96367.47;;;17.03;36.72
15007;BME280;7599;50.748;13.142;2023-03-01T11:09:32;96358.25;;;17.11;36.35
15007;BME280;7599;50.748;13.142;2023-03-01T11:12:40;96363.31;;;17.13;36.21
15007;BME280;7599;50.748;13.142;2023-03-01T11:15:42;96350.81;;;17.13;36.60
15007;BME280;7599;50.748;13.142;2023-03-01T11:18:56;96338.31;;;17.14;36.39
15007;BME280;7599;50.748;13.142;2023-03-01T11:22:02;96343.41;;;17.15;36.16
15007;BME280;7599;50.748;13.142;2023-03-01T11:25:11;96348.72;;;17.15;36.35
15007;BME280;7599;50.748;13.142;2023-03-01T11:28:19;96342.59;;;17.15;36.21
15007;BME280;7599;50.748;13.142;2023-03-01T11:31:24;96349.47;;;17.11;36.24
15007;BME280;7599;50.748;13.142;2023-03-01T11:34:38;96350.25;;;17.11;36.53
15007;BME280;7599;50.748;13.142;2023-03-01T11:37:46;96350.22;;;17.06;36.32
15007;BME280;7599;50.748;13.142;2023-03-01T11:40:58;96334.25;;;17.06;36.49
15007;BME280;7599;50.748;13.142;2023-03-01T11:44:11;96352.34;;;17.04;36.68
15007;BME280;7599;50.748;13.142;2023-03-01T11:47:28;96353.88;;;17.00;36.70
15007;BME280;7599;50.748;13.142;2023-03-01T11:50:39;96352.28;;;16.99;36.74
15007;BME280;7599;50.748;13.142;2023-03-01T11:53:53;96348.25;;;16.96;36.61
15007;BME280;7599;50.748;13.142;2023-03-01T11:57:01;96352.50;;;16.92;36.85
15007;BME280;7599;50.748;13.142;2023-03-01T12:00:37;96349.56;;;16.94;36.75
15007;BME280;7599;50.748;13.142;2023-03-01T12:04:04;96352.19;;;16.89;36.99
15007;BME280;7599;50.748;13.142;2023-03-01T12:07:12;96349.03;;;16.92;36.92
15007;BME280;7599;50.748;13.142;2023-03-01T12:10:25;96349.31;;;16.95;36.93
15007;BME280;7599;50.748;13.142;2023-03-01T12:17:19;96340.03;;;16.98;36.78
15007;BME280;7599;50.748;13.142;2023-03-01T12:20:31;96333.69;;;16.99;36.64
15007;BME280;7599;50.748;13.142;2023-03-01T12:24:00;96326.25;;;17.01;36.86
15007;BME280;7599;50.748;13.142;2023-03-01T12:27:18;96322.00;;;17.00;36.72
15007;BME280;7599;50.748;13.142;2023-03-01T12:30:32;96329.41;;;16.98;36.83
15007;BME280;7599;50.748;13.142;2023-03-01T12:33:45;96317.72;;;16.99;36.87
15007;BME280;7599;50.748;13.142;2023-03-01T12:40:32;96315.81;;;16.94;37.10
15007;BME280;7599;50.748;13.142;2023-03-01T12:43:44;96321.91;;;16.90;37.14
15007;BME280;7599;50.748;13.142;2023-03-01T12:46:59;96322.16;;;16.88;37.20
15007;BME280;7599;50.748;13.142;2023-03-01T12:50:12;96325.06;;;16.87;37.41
15007;BME280;7599;50.748;13.142;2023-03-01T12:53:23;96322.34;;;16.82;37.57
15007;BME280;7599;50.748;13.142;2023-03-01T12:56:28;96313.59;;;16.81;37.47
15007;BME280;7599;50.748;13.142;2023-03-01T12:59:35;96305.09;;;16.79;37.45
15007;BME280;7599;50.748;13.142;2023-03-01T13:02:46;96308.00;;;16.78;37.38
15007;BME280;7599;50.748;13.142;2023-03-01T13:06:02;96309.78;;;16.72;37.54
15007;BME280;7599;50.748;13.142;2023-03-01T13:09:15;96306.31;;;16.72;37.61
15007;BME280;7599;50.748;13.142;2023-03-01T13:12:42;96300.41;;;16.64;37.83
15007;BME280;7599;50.748;13.142;2023-03-01T13:15:44;96299.94;;;16.67;37.75
15007;BME280;7599;50.748;13.142;2023-03-01T13:18:48;96295.91;;;16.65;37.60
15007;BME280;7599;50.748;13.142;2023-03-01T13:21:53;96297.22;;;16.62;37.74
15007;BME280;7599;50.748;13.142;2023-03-01T13:25:13;96297.22;;;16.62;37.75
15007;BME280;7599;50.748;13.142;2023-03-01T13:28:39;96302.53;;;16.62;37.74
15007;BME280;7599;50.748;13.142;2023-03-01T13:31:57;96301.22;;;16.65;37.83
15007;BME280;7599;50.748;13.142;2023-03-01T13:35:01;96303.00;;;16.59;38.01
15007;BME280;7599;50.748;13.142;2023-03-01T13:41:50;96306.72;;;16.85;37.87
15007;BME280;7599;50.748;13.142;2023-03-01T13:44:53;96303.97;;;17.07;37.76
15007;BME280;7599;50.748;13.142;2023-03-01T13:47:58;96309.16;;;17.24;38.15
15007;BME280;7599;50.748;13.142;2023-03-01T13:51:04;96306.59;;;17.39;37.95
15007;BME280;7599;50.748;13.142;2023-03-01T13:54:11;96310.94;;;17.55;37.92
15007;BME280;7599;50.748;13.142;2023-03-01T13:57:22;96306.81;;;17.69;38.01
15007;BME280;7599;50.748;13.142;2023-03-01T14:00:33;96310.59;;;17.84;37.83
15007;BME280;7599;50.748;13.142;2023-03-01T14:03:41;96301.34;;;17.96;37.67
15007;BME280;7599;50.748;13.142;2023-03-01T14:06:43;96290.22;;;18.09;38.07
15007;BME280;7599;50.748;13.142;2023-03-01T14:09:48;96292.94;;;18.25;37.88
15007;BME280;7599;50.748;13.142;2023-03-01T14:13:01;96291.91;;;18.36;38.03
15007;BME280;7599;50.748;13.142;2023-03-01T14:16:27;96297.50;;;18.44;38.15
15007;BME280;7599;50.748;13.142;2023-03-01T14:19:33;96291.13;;;18.50;37.75
15007;BME280;7599;50.748;13.142;2023-03-01T14:22:36;96292.44;;;18.53;37.49
15007;BME280;7599;50.748;13.142;2023-03-01T14:25:47;96293.25;;;18.54;37.66
15007;BME280;7599;50.748;13.142;2023-03-01T14:28:51;96294.31;;;18.52;37.15
15007;BME280;7599;50.748;13.142;2023-03-01T14:31:54;96286.34;;;18.47;37.98
15007;BME280;7599;50.748;13.142;2023-03-01T14:34:59;96283.66;;;18.42;37.67
15007;BME280;7599;50.748;13.142;2023-03-01T14:38:02;96280.72;;;18.39;37.40
15007;BME280;7599;50.748;13.142;2023-03-01T14:41:08;96274.56;;;18.33;37.57
15007;BME280;7599;50.748;13.142;2023-03-01T14:44:16;96264.97;;;18.27;37.52
15007;BME280;7599;50.748;13.142;2023-03-01T14:47:27;96272.16;;;18.22;37.65
15007;BME280;7599;50.748;13.142;2023-03-01T14:50:31;96270.81;;;18.14;37.98
15007;BME280;7599;50.748;13.142;2023-03-01T14:53:34;96266.25;;;18.04;38.02
15007;BME280;7599;50.748;13.142;2023-03-01T14:56:51;96267.28;;;17.98;38.26
15007;BME280;7599;50.748;13.142;2023-03-01T14:59:58;96257.94;;;17.91;38.10
15007;BME280;7599;50.748;13.142;2023-03-01T15:03:06;96246.72;;;17.84;38.19
15007;BME280;7599;50.748;13.142;2023-03-01T15:06:16;96240.59;;;17.78;38.05
15007;BME280;7599;50.748;13.142;2023-03-01T15:09:19;96246.16;;;17.71;38.16
15007;BME280;7599;50.748;13.142;2023-03-01T15:12:35;96239.47;;;17.64;38.41
15007;BME280;7599;50.748;13.142;2023-03-01T15:15:41;96247.91;;;17.56;38.75
15007;BME280;7599;50.748;13.142;2023-03-01T15:18:46;96238.56;;;17.48;38.83
15007;BME280;7599;50.748;13.142;2023-03-01T15:21:49;96234.00;;;17.43;38.68
15007;BME280;7599;50.748;13.142;2023-03-01T15:24:52;96233.22;;;17.38;38.98
15007;BME280;7599;50.748;13.142;2023-03-01T15:27:56;96219.88;;;17.33;39.05
15007;BME280;7599;50.748;13.142;2023-03-01T15:31:04;96232.31;;;17.27;39.42
15007;BME280;7599;50.748;13.142;2023-03-01T15:34:22;96223.81;;;17.25;39.09
15007;BME280;7599;50.748;13.142;2023-03-01T15:37:39;96228.09;;;17.26;39.41
15007;BME280;7599;50.748;13.142;2023-03-01T15:40:49;96228.59;;;17.28;39.05
15007;BME280;7599;50.748;13.142;2023-03-01T15:43:52;96232.38;;;17.32;39.39
15007;BME280;7599;50.748;13.142;2023-03-01T15:46:58;96232.41;;;17.37;39.34
15007;BME280;7599;50.748;13.142;2023-03-01T15:50:00;96236.38;;;17.40;39.00
15007;BME280;7599;50.748;13.142;2023-03-01T15:53:04;96239.03;;;17.40;38.94
15007;BME280;7599;50.748;13.142;2023-03-01T15:56:07;96228.41;;;17.40;39.10
15007;BME280;7599;50.748;13.142;2023-03-01T15:59:11;96231.06;;;17.40;39.29
15007;BME280;7599;50.748;13.142;2023-03-01T16:02:16;96236.31;;;17.25;39.16
15007;BME280;7599;50.748;13.142;2023-03-01T16:05:24;96240.84;;;17.24;38.83
15007;BME280;7599;50.748;13.142;2023-03-01T16:08:27;96240.59;;;17.26;39.34
15007;BME280;7599;50.748;13.142;2023-03-01T16:11:30;96244.06;;;17.31;39.15
15007;BME280;7599;50.748;13.142;2023-03-01T16:14:33;96239.28;;;17.33;39.59
15007;BME280;7599;50.748;13.142;2023-03-01T16:17:37;96236.63;;;17.33;40.13
15007;BME280;7599;50.748;13.142;2023-03-01T16:20:39;96232.38;;;17.32;40.79
15007;BME280;7599;50.748;13.142;2023-03-01T16:23:43;96230.75;;;17.31;41.08
15007;BME280;7599;50.748;13.142;2023-03-01T16:26:46;96229.66;;;17.27;41.22
15007;BME280;7599;50.748;13.142;2023-03-01T16:29:48;96235.50;;;17.24;41.32
15007;BME280;7599;50.748;13.142;2023-03-01T16:32:52;96228.03;;;17.21;41.40
15007;BME280;7599;50.748;13.142;2023-03-01T16:35:54;96236.28;;;17.20;42.23